Time;durP1;ratioP1;P1;durP2;ratioP2;P2;SDS_P1;SDS_P2;PMS_P1;PMS_P2;Temp;Humidity;BMP_temperature;BMP_pressure;BME280_temperature;BME280_humidity;BME280_pressure;Samples;Min_cycle;Max_cycle;Signal;HPM_P1;HPM_P2
2021/04/04 00:01:46;;;;;;;4.63;1.92;;;5.80;94.40;;;;;;5093981;28;20035;-68
2021/04/04 00:04:13;;;;;;;7.95;1.90;;;5.80;94.70;;;;;;5093572;28;20028;-68
2021/04/04 00:06:39;;;;;;;6.40;2.20;;;5.80;94.90;;;;;;5092374;28;20533;-68
2021/04/04 00:09:05;;;;;;;11.95;2.10;;;5.80;94.90;;;;;;5093281;28;20134;-68
2021/04/04 00:11:31;;;;;;;6.93;1.95;;;5.70;95.10;;;;;;5093188;28;20032;-67
2021/04/04 00:13:57;;;;;;;9.07;3.13;;;5.60;95.30;;;;;;5093416;28;20064;-67
2021/04/04 00:16:23;;;;;;;5.97;2.13;;;5.60;95.60;;;;;;5092141;28;20454;-67
2021/04/04 00:18:48;;;;;;;7.68;1.95;;;5.60;95.60;;;;;;5093555;28;20035;-68
2021/04/04 00:21:14;;;;;;;7.47;2.17;;;5.50;95.60;;;;;;5093517;28;20063;-68
2021/04/04 00:23:40;;;;;;;6.70;2.50;;;5.50;95.90;;;;;;5108900;28;20123;-68
2021/04/04 00:26:06;;;;;;;9.43;2.65;;;5.40;96.30;;;;;;5093477;28;20024;-68
2021/04/04 00:28:31;;;;;;;8.10;2.20;;;5.40;96.30;;;;;;5093558;28;20028;-68
2021/04/04 00:30:57;;;;;;;7.68;2.20;;;5.40;96.60;;;;;;5093336;28;20031;-68
2021/04/04 00:33:23;;;;;;;7.35;2.10;;;5.30;96.80;;;;;;5093113;28;20024;-68
2021/04/04 00:35:49;;;;;;;3.85;1.98;;;5.30;97.00;;;;;;5093053;28;20032;-68
2021/04/04 00:38:15;;;;;;;6.90;2.40;;;5.40;96.90;;;;;;5092900;28;20111;-69
2021/04/04 00:40:41;;;;;;;5.55;2.08;;;5.40;97.00;;;;;;5093121;28;20039;-68
2021/04/04 00:43:07;;;;;;;9.82;2.45;;;5.30;97.10;;;;;;5091670;28;20039;-68
2021/04/04 00:45:37;;;;;;;9.38;2.30;;;5.30;97.30;;;;;;5091584;28;20431;-68
2021/04/04 00:48:06;;;;;;;9.50;2.08;;;5.20;97.40;;;;;;5093062;28;20032;-68
2021/04/04 00:50:36;;;;;;;6.93;2.72;;;5.30;97.40;;;;;;5091692;28;20036;-68
2021/04/04 00:53:03;;;;;;;9.50;2.40;;;5.20;97.60;;;;;;5090992;28;20047;-68
2021/04/04 00:55:29;;;;;;;6.72;2.53;;;5.30;97.70;;;;;;5091718;28;20039;-68
2021/04/04 00:57:55;;;;;;;5.32;2.20;;;5.20;97.80;;;;;;5092863;28;20032;-68
2021/04/04 01:00:28;;;;;;;9.48;2.70;;;5.20;98.10;;;;;;5092886;28;20028;-68
2021/04/04 01:02:56;;;;;;;7.30;2.42;;;5.10;98.30;;;;;;5092891;28;20028;-68
2021/04/04 01:05:42;;;;;;;6.80;2.20;;;5.10;98.50;;;;;;5091601;28;20028;-69
2021/04/04 01:08:09;;;;;;;8.27;2.55;;;5.10;98.60;;;;;;5092263;28;20408;-68
2021/04/04 01:10:39;;;;;;;5.78;2.17;;;5.10;98.70;;;;;;5092656;28;20093;-68
2021/04/04 01:13:30;;;;;;;9.38;2.40;;;5.00;98.80;;;;;;5092421;28;20430;-68
2021/04/04 01:16:18;;;;;;;10.37;2.40;;;5.00;99.10;;;;;;5092649;28;20495;-69
2021/04/04 01:19:26;;;;;;;5.57;2.60;;;4.90;99.40;;;;;;5092511;28;20468;-68
2021/04/04 01:22:03;;;;;;;8.98;2.28;;;4.80;99.70;;;;;;5076901;28;20032;-68
2021/04/04 01:25:12;;;;;;;5.70;2.50;;;4.80;99.80;;;;;;5091381;28;20040;-68
2021/04/04 01:27:52;;;;;;;8.35;2.40;;;4.80;99.40;;;;;;5060717;28;20032;-68
2021/04/04 01:30:22;;;;;;;8.60;2.63;;;4.80;99.90;;;;;;5049760;28;20448;-68
2021/04/04 01:32:49;;;;;;;5.40;2.47;;;4.90;99.90;;;;;;5065245;28;20071;-68
2021/04/04 01:35:20;;;;;;;8.55;3.15;;;4.90;99.90;;;;;;5091309;28;20040;-68
2021/04/04 01:37:47;;;;;;;7.47;2.57;;;4.90;99.50;;;;;;5090809;28;20497;-68
2021/04/04 01:40:17;;;;;;;12.38;2.30;;;4.90;99.90;;;;;;5090975;28;20646;-68
2021/04/04 01:42:44;;;;;;;7.40;2.38;;;5.00;99.90;;;;;;5091121;28;20548;-68
2021/04/04 01:45:11;;;;;;;7.03;2.50;;;4.90;99.90;;;;;;5090936;28;20043;-68
2021/04/04 01:47:39;;;;;;;5.15;2.17;;;4.90;99.90;;;;;;5090977;28;20480;-68
2021/04/04 01:50:07;;;;;;;6.07;2.50;;;4.80;99.90;;;;;;5090745;28;20126;-68
2021/04/04 01:52:35;;;;;;;11.57;2.53;;;4.80;99.90;;;;;;5091004;28;20051;-68
2021/04/04 01:55:01;;;;;;;8.32;2.55;;;4.70;99.90;;;;;;5090781;28;20039;-68
2021/04/04 01:57:29;;;;;;;7.35;2.50;;;4.70;99.90;;;;;;5090853;28;20056;-68
2021/04/04 01:59:56;;;;;;;7.78;2.13;;;4.80;99.90;;;;;;5092243;28;20028;-68
2021/04/04 02:02:22;;;;;;;9.13;2.83;;;4.80;99.90;;;;;;5074018;28;20036;-69
2021/04/04 02:04:50;;;;;;;5.60;2.22;;;4.70;99.90;;;;;;5092476;28;20036;-69
2021/04/04 02:07:17;;;;;;;7.20;2.20;;;4.70;99.90;;;;;;5096224;28;20031;-69
2021/04/04 02:09:46;;;;;;;8.50;2.70;;;4.70;99.90;;;;;;5094259;28;20127;-69
2021/04/04 02:12:12;;;;;;;6.00;2.50;;;4.60;99.90;;;;;;5096130;28;20090;-68
2021/04/04 02:14:41;;;;;;;6.68;2.45;;;4.60;99.90;;;;;;5095601;28;20539;-69
2021/04/04 02:17:07;;;;;;;9.38;2.72;;;4.50;99.90;;;;;;5094764;28;20028;-69
2021/04/04 02:19:35;;;;;;;7.43;3.10;;;4.60;99.90;;;;;;5094583;28;20059;-68
2021/04/04 02:22:01;;;;;;;8.13;2.75;;;4.60;99.90;;;;;;5094688;28;20039;-68
2021/04/04 02:24:29;;;;;;;9.32;2.90;;;4.60;99.90;;;;;;5095567;28;20032;-68
2021/04/04 02:26:59;;;;;;;7.70;2.53;;;4.60;99.90;;;;;;5094534;28;20476;-68
2021/04/04 02:29:25;;;;;;;11.00;3.08;;;4.50;99.90;;;;;;5095569;28;20389;-68
2021/04/04 02:32:00;;;;;;;8.30;2.53;;;4.50;99.90;;;;;;5094375;28;20036;-68
2021/04/04 02:34:34;;;;;;;13.60;2.67;;;4.50;99.90;;;;;;5094154;28;20476;-68
2021/04/04 02:37:09;;;;;;;10.13;2.88;;;4.40;99.90;;;;;;5095626;28;20030;-68
2021/04/04 02:39:52;;;;;;;10.55;3.40;;;4.30;99.90;;;;;;5095036;28;20511;-68
2021/04/04 02:42:23;;;;;;;8.75;2.40;;;4.30;99.90;;;;;;5094455;28;20036;-68
2021/04/04 02:44:53;;;;;;;6.47;2.85;;;4.30;99.90;;;;;;5093789;28;20039;-68
2021/04/04 02:47:27;;;;;;;7.25;2.90;;;4.20;99.90;;;;;;5094267;28;20039;-68
2021/04/04 02:49:54;;;;;;;8.02;2.58;;;4.20;99.90;;;;;;5093957;28;20036;-68
2021/04/04 02:52:22;;;;;;;7.97;2.83;;;4.10;99.90;;;;;;5093861;28;20024;-68
2021/04/04 02:54:53;;;;;;;8.15;3.17;;;4.00;99.90;;;;;;5093729;28;20038;-67
2021/04/04 02:57:21;;;;;;;7.47;2.97;;;4.00;99.90;;;;;;5093853;28;20032;-68
2021/04/04 02:59:53;;;;;;;5.82;2.65;;;3.90;99.90;;;;;;5093580;28;20487;-68
2021/04/04 03:02:20;;;;;;;9.02;3.10;;;3.90;99.90;;;;;;5093994;28;20028;-69
2021/04/04 03:04:49;;;;;;;5.18;2.70;;;3.90;99.90;;;;;;5094690;28;20068;-69
2021/04/04 03:07:20;;;;;;;8.63;2.78;;;3.90;99.90;;;;;;5093546;28;20074;-68
2021/04/04 03:09:51;;;;;;;6.80;3.45;;;3.90;99.90;;;;;;5093161;28;20048;-69
2021/04/04 03:12:20;;;;;;;7.95;3.08;;;3.80;99.90;;;;;;5093884;28;20059;-68
2021/04/04 03:14:48;;;;;;;13.75;3.17;;;3.80;99.90;;;;;;5094682;28;20035;-69
2021/04/04 03:17:16;;;;;;;9.95;3.10;;;3.70;99.90;;;;;;5092623;28;20361;-69
2021/04/04 03:19:44;;;;;;;9.50;2.55;;;3.80;99.90;;;;;;5076178;28;20156;-69
2021/04/04 03:22:12;;;;;;;10.05;2.90;;;3.80;99.90;;;;;;5093281;28;20519;-66
2021/04/04 03:24:40;;;;;;;9.40;2.58;;;3.70;99.90;;;;;;5094434;28;20025;-69
2021/04/04 03:27:08;;;;;;;9.93;3.17;;;3.80;99.90;;;;;;5093033;28;20032;-69
2021/04/04 03:29:35;;;;;;;7.95;2.65;;;3.70;99.90;;;;;;5094182;28;20534;-69
2021/04/04 03:32:02;;;;;;;5.05;2.33;;;3.70;99.90;;;;;;5093349;28;20043;-69
2021/04/04 03:34:29;;;;;;;7.72;2.75;;;3.60;99.90;;;;;;5094468;28;20606;-68
2021/04/04 03:36:56;;;;;;;6.60;2.67;;;3.70;99.90;;;;;;5092762;28;20384;-68
2021/04/04 03:39:23;;;;;;;10.60;2.50;;;3.70;99.90;;;;;;5092905;28;20036;-68
2021/04/04 03:41:51;;;;;;;7.72;2.83;;;3.60;99.90;;;;;;5092869;28;20059;-68
2021/04/04 03:44:25;;;;;;;9.00;2.60;;;3.60;99.90;;;;;;5093152;28;20542;-68
2021/04/04 03:46:54;;;;;;;8.88;3.00;;;3.60;99.90;;;;;;5092883;28;20085;-68
2021/04/04 03:49:21;;;;;;;7.88;2.97;;;3.60;99.90;;;;;;5092621;28;20071;-68
2021/04/04 03:51:47;;;;;;;10.25;2.97;;;3.40;99.90;;;;;;5092529;28;20055;-68
2021/04/04 03:54:17;;;;;;;6.82;2.92;;;3.40;99.90;;;;;;5092908;28;20039;-67
2021/04/04 03:56:48;;;;;;;13.93;2.65;;;3.40;99.90;;;;;;5092811;28;20491;-68
2021/04/04 03:59:16;;;;;;;9.90;3.08;;;3.40;99.90;;;;;;5092956;28;20055;-69
2021/04/04 04:01:47;;;;;;;11.45;3.20;;;3.30;99.90;;;;;;5092344;28;20111;-68
2021/04/04 04:04:15;;;;;;;6.30;2.83;;;3.30;99.90;;;;;;5093962;28;20059;-68
2021/04/04 04:06:44;;;;;;;8.85;3.40;;;3.30;99.90;;;;;;5093745;28;20050;-68
2021/04/04 04:09:13;;;;;;;10.65;3.92;;;3.30;99.90;;;;;;5092196;28;20153;-67
2021/04/04 04:11:47;;;;;;;8.52;2.75;;;3.30;99.90;;;;;;5092069;28;20439;-68
2021/04/04 04:14:17;;;;;;;8.93;3.55;;;3.20;99.90;;;;;;5092400;28;20064;-68
2021/04/04 04:16:43;;;;;;;15.40;3.08;;;3.30;99.90;;;;;;5093460;28;20081;-68
2021/04/04 04:19:11;;;;;;;9.30;2.92;;;3.20;99.90;;;;;;5092218;28;20115;-67
2021/04/04 04:21:39;;;;;;;6.47;3.00;;;3.20;99.90;;;;;;5092347;28;20043;-68
2021/04/04 04:24:12;;;;;;;12.00;2.92;;;3.20;99.90;;;;;;5093503;28;20111;-68
2021/04/04 04:26:47;;;;;;;8.77;4.15;;;3.30;99.90;;;;;;5076032;28;20447;-68
2021/04/04 04:29:16;;;;;;;13.93;3.35;;;3.20;99.90;;;;;;5075549;28;20039;-68
2021/04/04 04:31:51;;;;;;;7.35;3.55;;;3.20;99.90;;;;;;5091804;28;20541;-68
2021/04/04 04:34:19;;;;;;;9.32;3.25;;;3.20;99.90;;;;;;5091865;28;20069;-67
2021/04/04 04:36:47;;;;;;;7.38;2.95;;;3.10;99.90;;;;;;5091940;28;20046;-68
2021/04/04 04:39:14;;;;;;;11.10;3.45;;;3.00;99.90;;;;;;5092069;28;20028;-68
2021/04/04 04:41:45;;;;;;;5.63;2.75;;;3.10;99.90;;;;;;5091868;28;20027;-68
2021/04/04 04:44:27;;;;;;;9.25;3.38;;;3.00;99.90;;;;;;5093314;28;20028;-68
2021/04/04 04:46:53;;;;;;;;;;;3.00;99.90;;;;;;5092276;28;20040;-68
2021/04/04 04:49:19;;;;;;;9.05;2.83;;;3.10;99.90;;;;;;5108782;28;19998;-68
2021/04/04 04:51:47;;;;;;;6.05;2.78;;;3.00;99.90;;;;;;5092881;28;20490;-68
2021/04/04 04:54:13;;;;;;;8.73;3.20;;;3.10;99.90;;;;;;5091620;28;20032;-69
2021/04/04 04:56:41;;;;;;;8.40;3.25;;;3.00;99.90;;;;;;5091808;28;20539;-69
2021/04/04 04:59:08;;;;;;;13.40;3.53;;;3.00;99.90;;;;;;5091388;28;20113;-70
2021/04/04 05:01:45;;;;;;;9.88;3.78;;;3.00;99.90;;;;;;5092597;28;20500;-69
2021/04/04 05:04:12;;;;;;;8.43;3.50;;;3.00;99.90;;;;;;5091693;28;20036;-69
2021/04/04 05:06:40;;;;;;;8.43;3.15;;;2.90;99.90;;;;;;5091562;28;20035;-69
2021/04/04 05:09:08;;;;;;;12.40;3.92;;;2.90;99.90;;;;;;5092346;28;20378;-69
2021/04/04 05:11:46;;;;;;;12.48;4.40;;;2.90;99.90;;;;;;5092687;28;20097;-69
2021/04/04 05:14:13;;;;;;;13.10;3.20;;;3.00;99.90;;;;;;5091569;28;20032;-68
2021/04/04 05:16:40;;;;;;;8.90;3.22;;;3.00;99.90;;;;;;5092522;28;20115;-68
2021/04/04 05:19:08;;;;;;;7.47;3.47;;;3.00;99.90;;;;;;5091311;28;20571;-68
2021/04/04 05:21:34;;;;;;;9.75;2.97;;;3.10;99.90;;;;;;5092339;28;20182;-67
2021/04/04 05:24:06;;;;;;;11.52;3.42;;;3.20;99.90;;;;;;5091335;28;20028;-68
2021/04/04 05:26:41;;;;;;;5.30;2.90;;;3.10;99.90;;;;;;5092584;28;20028;-68
2021/04/04 05:29:12;;;;;;;13.15;3.30;;;3.10;99.90;;;;;;5091112;28;20502;-75
2021/04/04 05:31:51;;;;;;;10.73;3.10;;;3.20;99.90;;;;;;5090885;28;20044;-73
2021/04/04 05:34:27;;;;;;;9.65;3.08;;;3.20;99.90;;;;;;5092239;28;20051;-73
2021/04/04 05:36:54;;;;;;;8.77;2.92;;;3.20;99.90;;;;;;5092108;28;20032;-74
2021/04/04 05:39:26;;;;;;;11.27;4.22;;;3.30;99.90;;;;;;5087662;28;20032;-74
2021/04/04 05:41:56;;;;;;;6.50;3.28;;;3.30;99.90;;;;;;5071926;28;20074;-74
2021/04/04 05:45:00;;;;;;;7.50;3.15;;;3.30;99.90;;;;;;5075781;28;20028;-73
2021/04/04 05:47:40;;;;;;;9.10;3.13;;;3.30;99.90;;;;;;5078719;28;20547;-73
2021/04/04 05:50:17;;;;;;;10.88;3.30;;;3.30;99.90;;;;;;5076073;28;20499;-72
2021/04/04 05:52:56;;;;;;;10.68;3.35;;;3.40;99.90;;;;;;5074755;28;20051;-73
2021/04/04 05:55:42;;;;;;;12.18;2.97;;;3.40;99.90;;;;;;5074783;28;20032;-74
2021/04/04 05:58:31;;;;;;;12.32;3.58;;;3.50;99.90;;;;;;5074842;28;20380;-75
2021/04/04 06:01:10;;;;;;;5.90;2.95;;;3.50;99.90;;;;;;5074609;28;20531;-75
2021/04/04 06:03:47;;;;;;;7.53;3.17;;;3.50;99.90;;;;;;5076005;28;20473;-74
2021/04/04 06:07:05;;;;;;;6.80;3.28;;;3.60;99.90;;;;;;5075870;28;20032;-75
2021/04/04 06:10:09;;;;;;;8.68;3.20;;;3.60;99.90;;;;;;5075524;28;20123;-75
2021/04/04 06:13:24;;;;;;;7.22;2.78;;;3.60;99.90;;;;;;5074925;28;20036;-73
2021/04/04 06:16:20;;;;;;;10.52;3.47;;;3.70;99.90;;;;;;5089476;28;20085;-74
2021/04/04 06:19:35;;;;;;;8.93;3.38;;;3.90;99.90;;;;;;5090261;28;20024;-75
2021/04/04 06:23:00;;;;;;;11.75;3.38;;;3.90;99.90;;;;;;5075585;28;20040;-72
2021/04/04 06:25:53;;;;;;;11.85;3.88;;;4.00;99.90;;;;;;5061004;28;20172;-76
2021/04/04 06:28:49;;;;;;;13.48;3.88;;;4.10;99.90;;;;;;5075698;28;20032;-74
2021/04/04 06:31:30;;;;;;;10.85;3.78;;;4.20;99.90;;;;;;5088899;28;20060;-71
2021/04/04 06:34:13;;;;;;;10.82;3.85;;;4.30;99.90;;;;;;5075307;28;20056;-74
2021/04/04 06:37:24;;;;;;;13.55;4.07;;;4.40;99.90;;;;;;5090321;28;20025;-70
2021/04/04 06:40:12;;;;;;;10.13;4.13;;;4.50;99.90;;;;;;5074884;28;20090;-75
2021/04/04 06:42:56;;;;;;;11.80;3.97;;;4.50;99.90;;;;;;5070194;28;20035;-73
2021/04/04 06:45:47;;;;;;;17.95;4.13;;;4.60;99.90;;;;;;5054904;28;20045;-71
2021/04/04 06:49:00;;;;;;;15.97;4.63;;;4.80;99.90;;;;;;5053655;28;20041;-73
2021/04/04 06:52:09;;;;;;;11.13;4.10;;;4.90;99.90;;;;;;5052806;28;20064;-75
2021/04/04 06:54:53;;;;;;;12.93;4.05;;;4.90;99.90;;;;;;5054892;28;20044;-75
2021/04/04 06:58:22;;;;;;;10.27;4.78;;;5.10;99.90;;;;;;5054962;28;20059;-74
2021/04/04 07:01:19;;;;;;;13.60;4.97;;;5.30;99.90;;;;;;5045354;28;20041;-73
2021/04/04 07:04:23;;;;;;;13.75;4.00;;;5.40;99.90;;;;;;5053672;28;20033;-74
2021/04/04 07:07:46;;;;;;;9.65;4.25;;;5.50;99.90;;;;;;5044559;28;20409;-76
2021/04/04 07:10:27;;;;;;;9.95;3.85;;;5.70;99.90;;;;;;5058459;28;20044;-76
2021/04/04 07:13:50;;;;;;;12.00;5.00;;;5.80;99.90;;;;;;5094605;28;20036;-73
2021/04/04 07:16:37;;;;;;;17.65;5.45;;;5.90;99.90;;;;;;5085391;28;20075;-75
2021/04/04 07:20:00;;;;;;;11.13;4.20;;;6.10;99.90;;;;;;5094626;28;20390;-77
2021/04/04 07:23:16;;;;;;;10.48;4.13;;;6.10;99.90;;;;;;5082053;28;20047;-77
2021/04/04 07:26:16;;;;;;;11.63;4.47;;;6.30;99.90;;;;;;5085680;28;20033;-77
2021/04/04 07:29:27;;;;;;;13.63;4.68;;;6.30;99.90;;;;;;5062174;28;20539;-72
2021/04/04 07:32:03;;;;;;;18.33;4.53;;;6.30;99.90;;;;;;5072392;28;20040;-77
2021/04/04 07:34:40;;;;;;;14.05;4.57;;;6.40;99.90;;;;;;5087259;28;20079;-76
2021/04/04 07:37:36;;;;;;;9.73;4.53;;;6.50;99.90;;;;;;5056217;28;20040;-71
2021/04/04 07:40:18;;;;;;;11.27;4.25;;;6.50;99.90;;;;;;5055358;28;20033;-73
2021/04/04 07:42:53;;;;;;;;;;;6.70;99.90;;;;;;5082652;28;20161;-75
2021/04/04 07:45:29;;;;;;;27.10;11.23;;;6.70;99.90;;;;;;5058510;28;19912;-72
2021/04/04 07:48:22;;;;;;;17.17;6.78;;;6.80;99.90;;;;;;5055111;28;20493;-74
2021/04/04 07:51:08;;;;;;;11.98;5.28;;;6.90;99.90;;;;;;5052599;28;20047;-73
2021/04/04 07:54:04;;;;;;;17.58;6.95;;;7.10;99.90;;;;;;5064754;28;20055;-74
2021/04/04 07:56:49;;;;;;;14.95;4.72;;;7.20;99.90;;;;;;5092743;28;20059;-73
2021/04/04 07:59:47;;;;;;;15.13;5.75;;;7.40;99.90;;;;;;5093552;28;20039;-73
2021/04/04 08:03:09;;;;;;;12.80;4.95;;;7.40;99.90;;;;;;5093509;28;20504;-74
2021/04/04 08:05:47;;;;;;;12.48;5.65;;;7.60;99.90;;;;;;5034968;28;20102;-73
2021/04/04 08:08:24;;;;;;;22.63;5.63;;;7.70;99.90;;;;;;5065852;28;20411;-74
2021/04/04 08:11:04;;;;;;;16.65;5.35;;;7.80;99.90;;;;;;5073358;28;20034;-73
2021/04/04 08:14:05;;;;;;;11.38;4.40;;;7.80;99.90;;;;;;5061680;28;20032;-73
2021/04/04 08:16:59;;;;;;;11.43;4.20;;;7.90;99.90;;;;;;5053296;28;20104;-75
2021/04/04 08:19:26;;;;;;;17.70;4.82;;;8.10;99.90;;;;;;5056580;28;20029;-75
2021/04/04 08:22:16;;;;;;;11.93;4.82;;;7.70;99.90;;;;;;5060688;28;20037;-72
2021/04/04 08:24:46;;;;;;;15.80;5.03;;;8.00;99.90;;;;;;5052016;28;20087;-76
2021/04/04 08:27:33;;;;;;;15.30;4.95;;;8.20;99.90;;;;;;5051877;28;20037;-78
2021/04/04 08:30:21;;;;;;;13.93;4.35;;;8.30;99.90;;;;;;5052568;28;20056;-78
2021/04/04 08:33:30;;;;;;;11.18;4.10;;;8.60;99.80;;;;;;5051384;28;20045;-79
2021/04/04 08:36:01;;;;;;;16.90;5.38;;;8.80;99.60;;;;;;5038977;28;20386;-77
2021/04/04 08:38:40;;;;;;;14.63;4.65;;;8.90;99.10;;;;;;5051772;28;20033;-78
2021/04/04 08:41:11;;;;;;;9.85;4.28;;;8.80;99.20;;;;;;5070641;28;20024;-76
2021/04/04 08:43:40;;;;;;;16.25;5.25;;;8.70;99.50;;;;;;5091283;28;20032;-76
2021/04/04 08:46:47;;;;;;;16.20;4.45;;;8.90;99.20;;;;;;5092974;28;20115;-76
2021/04/04 08:49:16;;;;;;;13.18;4.47;;;9.00;98.90;;;;;;5078063;28;20028;-73
2021/04/04 08:52:18;;;;;;;21.58;8.32;;;9.00;99.10;;;;;;5067156;28;20123;-73
2021/04/04 08:54:51;;;;;;;14.38;4.82;;;9.10;98.70;;;;;;5048159;28;20467;-74
2021/04/04 08:57:48;;;;;;;10.63;5.32;;;9.20;98.50;;;;;;5049657;28;20040;-73
2021/04/04 09:00:15;;;;;;;15.77;5.15;;;9.50;97.60;;;;;;5051236;28;20029;-74
2021/04/04 09:02:59;;;;;;;19.55;5.18;;;9.50;97.40;;;;;;5052557;28;20052;-73
2021/04/04 09:05:27;;;;;;;13.98;4.70;;;9.70;97.20;;;;;;5051067;28;20458;-74
2021/04/04 09:07:59;;;;;;;15.77;4.88;;;9.60;97.00;;;;;;5052322;28;20124;-73
2021/04/04 09:10:29;;;;;;;15.65;4.25;;;9.70;96.90;;;;;;5051141;28;20037;-73
2021/04/04 09:12:57;;;;;;;19.05;6.47;;;9.90;96.70;;;;;;5050907;28;20393;-73
2021/04/04 09:15:25;;;;;;;18.10;4.25;;;10.10;96.00;;;;;;5051602;28;20029;-74
2021/04/04 09:17:57;;;;;;;18.13;5.13;;;10.10;95.60;;;;;;5051198;28;20157;-73
2021/04/04 09:20:40;;;;;;;14.95;4.50;;;9.80;95.80;;;;;;5050674;28;20116;-75
2021/04/04 09:23:06;;;;;;;13.43;5.10;;;9.90;96.50;;;;;;5050769;28;20025;-73
2021/04/04 09:25:34;;;;;;;10.20;4.35;;;10.20;96.00;;;;;;5052158;28;20056;-74
2021/04/04 09:28:05;;;;;;;14.43;4.50;;;10.50;95.30;;;;;;5051946;28;20474;-74
2021/04/04 09:30:35;;;;;;;10.53;4.00;;;10.50;94.80;;;;;;5050732;28;20124;-74
2021/04/04 09:33:06;;;;;;;15.00;5.03;;;10.90;93.70;;;;;;5052098;28;20033;-74
2021/04/04 09:35:32;;;;;;;13.83;4.90;;;10.50;93.50;;;;;;5050876;28;20040;-75
2021/04/04 09:38:09;;;;;;;14.73;5.00;;;10.70;93.10;;;;;;5052133;28;20025;-75
2021/04/04 09:40:36;;;;;;;16.50;4.95;;;10.60;92.70;;;;;;5062744;28;20035;-74
2021/04/04 09:43:19;;;;;;;14.35;4.22;;;10.90;92.20;;;;;;5091988;28;20039;-74
2021/04/04 09:45:45;;;;;;;11.10;4.40;;;11.00;92.10;;;;;;5090815;28;20093;-74
2021/04/04 09:48:26;;;;;;;11.70;4.03;;;11.10;91.40;;;;;;5092177;28;20229;-74
2021/04/04 09:51:14;;;;;;;14.68;5.18;;;11.20;91.00;;;;;;5089270;28;20034;-73
2021/04/04 09:53:46;;;;;;;14.38;4.68;;;11.60;90.80;;;;;;5070400;28;20029;-75
2021/04/04 09:56:14;;;;;;;14.60;4.60;;;11.80;90.20;;;;;;5051668;28;20073;-75
2021/04/04 09:58:48;;;;;;;11.55;4.53;;;12.00;90.00;;;;;;5062006;28;20041;-74
2021/04/04 10:01:42;;;;;;;12.63;4.60;;;11.80;89.90;;;;;;5052612;28;20033;-77
2021/04/04 10:04:08;;;;;;;11.50;5.20;;;11.60;90.80;;;;;;5073483;28;20563;-73
2021/04/04 10:06:37;;;;;;;12.13;5.55;;;11.70;90.20;;;;;;5067881;28;20036;-71
2021/04/04 10:09:07;;;;;;;15.63;4.78;;;11.90;88.40;;;;;;5056849;28;20037;-70
2021/04/04 10:11:34;;;;;;;13.05;4.65;;;11.60;90.10;;;;;;5067340;28;20039;-71
2021/04/04 10:14:12;;;;;;;12.73;4.15;;;12.00;87.30;;;;;;5078586;28;20074;-70
2021/04/04 10:16:39;;;;;;;17.92;5.45;;;12.20;87.50;;;;;;5060467;28;20033;-68
2021/04/04 10:19:12;;;;;;;20.83;5.72;;;11.70;89.00;;;;;;5050266;28;20362;-70
2021/04/04 10:21:41;;;;;;;16.58;5.90;;;11.60;88.70;;;;;;5051722;28;20029;-70
2021/04/04 10:24:31;;;;;;;13.68;5.30;;;11.90;88.50;;;;;;5049912;28;20025;-70
2021/04/04 10:27:25;;;;;;;13.10;4.80;;;12.40;86.70;;;;;;5054816;28;20112;-70
2021/04/04 10:30:17;;;;;;;14.05;5.72;;;12.00;86.90;;;;;;5055361;28;20446;-70
2021/04/04 10:32:45;;;;;;;17.67;5.07;;;12.30;85.30;;;;;;5053931;28;20040;-70
2021/04/04 10:35:27;;;;;;;12.25;5.45;;;12.70;84.10;;;;;;5053954;28;20380;-69
2021/04/04 10:38:15;;;;;;;19.90;5.25;;;12.80;83.20;;;;;;5054298;28;20029;-70
2021/04/04 10:40:58;;;;;;;15.85;4.55;;;12.90;84.20;;;;;;5067599;28;20036;-69
2021/04/04 10:43:41;;;;;;;14.45;4.57;;;12.60;83.10;;;;;;5094201;28;20046;-69
2021/04/04 10:46:17;;;;;;;18.35;5.65;;;13.20;81.90;;;;;;5095031;28;20032;-69
2021/04/04 10:48:48;;;;;;;15.68;4.72;;;13.60;82.80;;;;;;5093984;28;20027;-69
2021/04/04 10:51:17;;;;;;;21.00;5.13;;;13.70;77.10;;;;;;5095128;28;20173;-51
2021/04/04 10:53:44;;;;;;;17.33;6.97;;;13.70;79.00;;;;;;5095324;28;20423;-55
2021/04/04 10:56:12;;;;;;;14.30;4.43;;;13.40;78.50;;;;;;5095058;28;20465;-51
2021/04/04 10:58:40;;;;;;;11.63;4.75;;;14.00;78.50;;;;;;5095309;28;20032;-54
2021/04/04 11:01:07;;;;;;;14.55;5.00;;;13.30;78.20;;;;;;5094683;28;20089;-53
2021/04/04 11:03:34;;;;;;;16.80;5.15;;;14.30;75.30;;;;;;5095046;28;20089;-55
2021/04/04 11:07:01;;;;;;;11.57;5.03;;;14.40;73.40;;;;;;5110183;27;20426;-54
2021/04/04 11:09:28;;;;;;;11.88;4.70;;;15.20;73.80;;;;;;5049107;28;20103;-51
2021/04/04 11:12:00;;;;;;;11.48;4.65;;;15.30;70.20;;;;;;5064272;28;20051;-56
2021/04/04 11:14:29;;;;;;;12.00;4.72;;;15.60;68.90;;;;;;5069626;28;20033;-50
2021/04/04 11:17:00;;;;;;;9.57;4.70;;;14.90;68.60;;;;;;5068390;28;20108;-57
2021/04/04 11:19:27;;;;;;;;;;;14.80;69.30;;;;;;5068842;28;20036;-59
2021/04/04 11:21:54;;;;;;;14.07;4.45;;;14.10;70.20;;;;;;5068382;28;19959;-54
2021/04/04 11:24:23;;;;;;;12.50;4.93;;;13.80;69.40;;;;;;5068192;28;20033;-58
2021/04/04 11:26:51;;;;;;;18.25;4.72;;;14.40;69.00;;;;;;5068154;28;20541;-58
2021/04/04 11:29:20;;;;;;;15.50;4.93;;;14.70;68.80;;;;;;5069443;28;20025;-55
2021/04/04 11:31:53;;;;;;;13.27;4.82;;;14.50;67.40;;;;;;5069150;28;20098;-57
2021/04/04 11:34:31;;;;;;;15.90;4.70;;;13.70;67.80;;;;;;5069242;28;20025;-57
2021/04/04 11:36:59;;;;;;;14.05;4.90;;;13.70;70.90;;;;;;5069370;28;20104;-60
2021/04/04 11:39:25;;;;;;;13.68;4.38;;;14.40;69.10;;;;;;5069009;28;20450;-55
2021/04/04 11:41:57;;;;;;;10.82;3.90;;;15.30;66.30;;;;;;5053076;28;20033;-57
2021/04/04 11:44:34;;;;;;;11.32;4.15;;;15.80;64.30;;;;;;5049118;28;20539;-55
2021/04/04 11:47:05;;;;;;;13.75;4.55;;;15.70;59.90;;;;;;5048882;28;20398;-58
2021/04/04 11:49:37;;;;;;;13.98;5.63;;;15.10;61.40;;;;;;5048916;28;20049;-56
2021/04/04 11:52:09;;;;;;;13.45;4.20;;;14.90;61.90;;;;;;5068167;28;20037;-54
2021/04/04 11:54:49;;;;;;;12.82;4.00;;;15.20;62.10;;;;;;5069016;28;20032;-50
2021/04/04 11:57:26;;;;;;;17.60;5.32;;;15.90;62.10;;;;;;5068624;28;20067;-54
2021/04/04 11:59:56;;;;;;;12.95;5.50;;;16.70;60.90;;;;;;5067726;28;20362;-58
2021/04/04 12:02:25;;;;;;;16.88;4.60;;;15.80;61.00;;;;;;5068609;28;20048;-55
2021/04/04 12:05:18;;;;;;;14.05;4.75;;;15.80;60.00;;;;;;5068370;28;20040;-59
2021/04/04 12:07:50;;;;;;;10.48;3.70;;;15.70;59.00;;;;;;5065727;28;20128;-50
2021/04/04 12:10:30;;;;;;;17.92;5.00;;;15.60;62.50;;;;;;5065813;28;20079;-61
2021/04/04 12:12:56;;;;;;;13.75;4.80;;;15.70;60.90;;;;;;5048583;28;20442;-51
2021/04/04 12:15:28;;;;;;;12.45;4.90;;;15.00;62.40;;;;;;5048424;28;20033;-72
2021/04/04 12:17:57;;;;;;;14.57;6.45;;;16.20;59.60;;;;;;5037758;28;20030;-71
2021/04/04 12:20:32;;;;;;;12.70;5.63;;;16.30;58.60;;;;;;5033617;28;20036;-74
2021/04/04 12:23:00;;;;;;;15.82;5.88;;;15.70;60.00;;;;;;5035265;28;20045;-78
2021/04/04 12:25:31;;;;;;;15.68;5.35;;;15.20;61.00;;;;;;5035060;28;20040;-75
2021/04/04 12:27:59;;;;;;;13.80;5.82;;;14.90;62.60;;;;;;5017442;28;20029;-73
2021/04/04 12:30:39;;;;;;;17.60;4.90;;;14.70;62.00;;;;;;5034698;28;20037;-75
2021/04/04 12:33:17;;;;;;;14.27;4.75;;;14.50;61.90;;;;;;5034772;28;20025;-74
2021/04/04 12:35:52;;;;;;;14.02;5.68;;;14.60;61.50;;;;;;5033915;28;20042;-75
2021/04/04 12:38:28;;;;;;;18.02;5.57;;;14.40;62.40;;;;;;5033696;28;20533;-74
2021/04/04 12:40:57;;;;;;;14.43;5.82;;;14.50;62.40;;;;;;5042891;28;20051;-73
2021/04/04 12:43:23;;;;;;;15.93;6.70;;;14.70;63.10;;;;;;5054560;28;20048;-73
2021/04/04 12:45:49;;;;;;;14.60;6.30;;;14.50;63.40;;;;;;5053285;28;20528;-75
2021/04/04 12:48:21;;;;;;;14.80;6.82;;;14.30;63.20;;;;;;5053404;28;20029;-74
2021/04/04 12:50:52;;;;;;;15.55;5.32;;;16.00;60.90;;;;;;5054857;28;20037;-76
2021/04/04 12:53:28;;;;;;;12.25;5.40;;;17.30;57.40;;;;;;5053342;28;20029;-75
2021/04/04 12:55:55;;;;;;;12.70;5.40;;;18.60;54.60;;;;;;5054668;28;20056;-73
2021/04/04 12:58:30;;;;;;;14.18;5.10;;;18.90;52.90;;;;;;5054281;28;20029;-73
2021/04/04 13:00:56;;;;;;;15.60;5.35;;;18.00;53.60;;;;;;5054612;28;20060;-74
2021/04/04 13:03:22;;;;;;;16.17;5.18;;;18.00;53.90;;;;;;5054215;28;20041;-73
2021/04/04 13:05:51;;;;;;;12.80;5.10;;;17.00;53.30;;;;;;5053761;28;20091;-75
2021/04/04 13:08:36;;;;;;;12.52;5.25;;;17.90;52.90;;;;;;5053985;28;20032;-74
2021/04/04 13:11:12;;;;;;;16.27;5.18;;;16.40;53.20;;;;;;5044044;28;20037;-74
2021/04/04 13:13:48;;;;;;;15.57;5.70;;;16.90;54.20;;;;;;5032813;28;20076;-76
2021/04/04 13:16:16;;;;;;;17.33;5.78;;;17.10;55.30;;;;;;5032670;28;20022;-75
2021/04/04 13:18:54;;;;;;;15.43;5.40;;;18.30;54.00;;;;;;5033031;28;20021;-75
2021/04/04 13:21:34;;;;;;;13.15;5.40;;;19.10;53.20;;;;;;5034151;28;20402;-75
2021/04/04 13:24:09;;;;;;;16.25;6.28;;;19.80;52.10;;;;;;5032592;28;20061;-74
2021/04/04 13:26:36;;;;;;;16.02;5.85;;;19.80;51.90;;;;;;5033602;28;20033;-75
2021/04/04 13:29:05;;;;;;;14.15;5.38;;;20.40;50.70;;;;;;5031814;28;20087;-74
2021/04/04 13:31:33;;;;;;;18.50;6.50;;;20.30;49.90;;;;;;5033843;28;20064;-73
2021/04/04 13:34:12;;;;;;;9.20;5.32;;;19.30;50.50;;;;;;5032348;28;20036;-75